createdAt,value
2018-04-13T00:00:42.806Z,11.9
2018-04-13T00:01:44.420Z,11.7
2018-04-13T00:02:46.028Z,11.8
2018-04-13T00:03:47.642Z,11.9
2018-04-13T00:04:49.252Z,11.9
2018-04-13T00:05:50.865Z,11.9
2018-04-13T00:06:52.478Z,11.8
2018-04-13T00:07:54.093Z,11.8
2018-04-13T00:08:55.703Z,11.7
2018-04-13T00:09:57.312Z,11.6
2018-04-13T00:10:58.930Z,11.5
2018-04-13T00:12:00.546Z,11.6
2018-04-13T00:13:02.209Z,11.6
2018-04-13T00:14:03.776Z,11.6
2018-04-13T00:15:05.389Z,11.5
2018-04-13T00:16:07.004Z,11.6
2018-04-13T00:17:08.607Z,11.6
2018-04-13T00:18:10.232Z,11.5
2018-04-13T00:19:11.831Z,11.6
2018-04-13T00:20:13.447Z,11.4
2018-04-13T00:21:15.062Z,11.5
2018-04-13T00:22:16.671Z,11.4
2018-04-13T00:23:18.284Z,11.4
2018-04-13T00:24:19.897Z,11.4
2018-04-13T00:25:21.511Z,11.4
2018-04-13T00:26:23.121Z,11.4
2018-04-13T00:27:24.735Z,11.4
2018-04-13T00:28:26.343Z,11.4
2018-04-13T00:29:27.960Z,11.6
2018-04-13T00:30:29.567Z,11.4
2018-04-13T00:31:31.183Z,11.4
2018-04-13T00:32:32.797Z,11.3
2018-04-13T00:33:34.411Z,11.4
2018-04-13T00:34:36.021Z,11.3
2018-04-13T00:35:37.639Z,11.4
2018-04-13T00:36:39.250Z,11.3
2018-04-13T00:37:40.866Z,11.3
2018-04-13T00:38:42.483Z,11.3
2018-04-13T00:39:44.094Z,11.4
2018-04-13T00:40:45.701Z,11.2
2018-04-13T00:41:47.316Z,11.3
2018-04-13T00:42:48.924Z,11.3
2018-04-13T00:43:50.544Z,11.3
2018-04-13T00:44:52.153Z,11.3
2018-04-13T00:45:53.769Z,11.3
2018-04-13T00:46:55.379Z,11.3
2018-04-13T00:47:56.994Z,11.3
2018-04-13T00:48:58.605Z,11.3
2018-04-13T00:50:00.215Z,11.3
2018-04-13T00:51:01.830Z,11.2
2018-04-13T00:52:03.445Z,11.3
2018-04-13T00:53:05.072Z,11.3
2018-04-13T00:54:06.663Z,11.3
2018-04-13T00:55:08.279Z,11.2
2018-04-13T00:56:09.892Z,11.2
2018-04-13T00:57:11.504Z,11.1
2018-04-13T00:58:13.120Z,11.1
2018-04-13T00:59:14.733Z,11.0
2018-04-13T01:00:16.340Z,11.1
2018-04-13T01:01:17.952Z,11.1
2018-04-13T01:02:19.569Z,11.2
2018-04-13T01:03:21.179Z,11.2
2018-04-13T01:04:22.790Z,11.1
2018-04-13T01:05:24.399Z,11.2
2018-04-13T01:06:26.013Z,11.1
2018-04-13T01:07:27.623Z,11.2
2018-04-13T01:08:29.236Z,11.2
2018-04-13T01:09:30.849Z,11.1
2018-04-13T01:10:32.457Z,11.3
2018-04-13T01:11:34.075Z,11.2
2018-04-13T01:12:35.686Z,11.4
2018-04-13T01:13:37.290Z,11.3
2018-04-13T01:14:38.909Z,11.3
2018-04-13T01:15:40.523Z,11.3
2018-04-13T01:16:42.124Z,11.3
2018-04-13T01:17:43.737Z,11.3
2018-04-13T01:18:45.351Z,11.3
2018-04-13T01:19:46.966Z,11.3
2018-04-13T01:20:48.574Z,11.1
2018-04-13T01:21:50.184Z,11.3
2018-04-13T01:22:51.844Z,11.3
2018-04-13T01:23:53.419Z,11.2
2018-04-13T01:24:55.020Z,11.2
2018-04-13T01:25:56.629Z,11.3
2018-04-13T01:26:58.241Z,11.2
2018-04-13T01:27:59.850Z,11.1
2018-04-13T01:29:01.476Z,11.0
2018-04-13T01:30:03.073Z,11.0
2018-04-13T01:31:04.687Z,11.0
2018-04-13T01:32:06.300Z,11.0
2018-04-13T01:33:07.911Z,11.0
2018-04-13T01:34:09.527Z,10.9
2018-04-13T01:35:11.139Z,10.9
2018-04-13T01:36:12.748Z,10.9
2018-04-13T01:37:14.362Z,10.8
2018-04-13T01:38:15.975Z,10.8
2018-04-13T01:39:17.593Z,10.8
2018-04-13T01:40:19.201Z,10.8
2018-04-13T01:41:20.818Z,10.9
2018-04-13T01:42:22.429Z,10.9
2018-04-13T01:43:24.038Z,10.8
2018-04-13T01:44:25.649Z,10.9
2018-04-13T01:45:27.261Z,10.8
2018-04-13T01:46:28.877Z,10.7
2018-04-13T01:47:30.484Z,10.8
2018-04-13T01:48:32.100Z,10.7
2018-04-13T01:49:33.710Z,10.7
2018-04-13T01:50:35.321Z,10.7
2018-04-13T01:51:36.932Z,10.7
2018-04-13T01:52:38.541Z,10.8
2018-04-13T01:53:40.156Z,10.6
2018-04-13T01:54:41.765Z,10.6
2018-04-13T01:55:43.440Z,10.6
2018-04-13T01:56:45.044Z,10.7
2018-04-13T01:57:46.655Z,10.4
2018-04-13T01:58:48.260Z,10.5
2018-04-13T01:59:49.877Z,10.5
2018-04-13T02:00:51.482Z,10.4
2018-04-13T02:01:53.099Z,10.4
2018-04-13T02:02:54.713Z,10.3
2018-04-13T02:03:56.325Z,10.3
2018-04-13T02:04:57.931Z,10.3
2018-04-13T02:05:59.540Z,10.4
2018-04-13T02:07:01.150Z,10.3
2018-04-13T02:08:02.771Z,10.2
2018-04-13T02:09:04.384Z,10.2
2018-04-13T02:10:05.994Z,10.3
2018-04-13T02:11:07.605Z,10.3
2018-04-13T02:12:09.218Z,10.2
2018-04-13T02:13:10.828Z,10.1
2018-04-13T02:14:12.442Z,10.2
2018-04-13T02:15:14.050Z,10.1
2018-04-13T02:16:15.665Z,10.2
2018-04-13T02:17:17.275Z,10.1
2018-04-13T02:18:18.888Z,10.1
2018-04-13T02:19:20.492Z,10.1
2018-04-13T02:20:22.106Z,10.1
2018-04-13T02:21:23.713Z,10.0
2018-04-13T02:22:25.323Z,9.9
2018-04-13T02:23:27.633Z,10.0
2018-04-13T02:24:29.245Z,10.0
2018-04-13T02:25:30.855Z,9.9
2018-04-13T02:26:32.460Z,9.9
2018-04-13T02:27:34.122Z,9.9
2018-04-13T02:28:35.682Z,10.0
2018-04-13T02:29:37.296Z,9.8
2018-04-13T02:30:38.908Z,9.9
2018-04-13T02:31:40.520Z,9.8
2018-04-13T02:32:42.127Z,9.8
2018-04-13T02:33:43.737Z,9.7
2018-04-13T02:34:45.353Z,9.7
2018-04-13T02:35:47.638Z,9.7
2018-04-13T02:36:49.251Z,9.8
2018-04-13T02:37:50.860Z,9.7
2018-04-13T02:38:52.475Z,9.7
2018-04-13T02:39:54.082Z,9.8
2018-04-13T02:40:55.696Z,9.7
2018-04-13T02:41:57.304Z,9.7
2018-04-13T02:42:58.913Z,9.7
2018-04-13T02:44:00.524Z,9.7
2018-04-13T02:45:02.140Z,9.7
2018-04-13T02:46:03.748Z,9.6
2018-04-13T02:47:05.363Z,9.7
2018-04-13T02:48:06.964Z,9.5
2018-04-13T02:49:08.593Z,9.6
2018-04-13T02:50:10.186Z,9.5
2018-04-13T02:51:11.798Z,9.4
2018-04-13T02:52:13.413Z,9.5
2018-04-13T02:53:15.020Z,9.4
2018-04-13T02:54:16.633Z,9.4
2018-04-13T02:55:18.246Z,9.4
2018-04-13T02:56:19.859Z,9.3
2018-04-13T02:57:21.463Z,9.4
2018-04-13T02:58:23.073Z,9.5
2018-04-13T02:59:24.687Z,9.3
2018-04-13T03:00:26.300Z,9.3
2018-04-13T03:01:27.906Z,9.4
2018-04-13T03:02:29.516Z,9.3
2018-04-13T03:03:31.131Z,9.4
2018-04-13T03:04:32.737Z,9.2
2018-04-13T03:05:34.345Z,9.2
2018-04-13T03:06:35.967Z,9.2
2018-04-13T03:07:37.603Z,9.3
2018-04-13T03:08:39.174Z,9.2
2018-04-13T03:09:40.788Z,9.1
2018-04-13T03:10:42.400Z,9.2
2018-04-13T03:11:44.004Z,9.2
2018-04-13T03:12:45.616Z,9.1
2018-04-13T03:13:47.229Z,9.1
2018-04-13T03:14:48.842Z,9.0
2018-04-13T03:15:50.447Z,9.1
2018-04-13T03:16:52.054Z,9.1
2018-04-13T03:17:53.665Z,9.0
2018-04-13T03:18:55.325Z,8.9
2018-04-13T03:19:56.886Z,9.0
2018-04-13T03:20:58.496Z,9.0
2018-04-13T03:22:00.111Z,8.9
2018-04-13T03:23:01.721Z,8.9
2018-04-13T03:24:03.326Z,8.9
2018-04-13T03:25:04.943Z,8.8
2018-04-13T03:26:06.549Z,9.0
2018-04-13T03:27:08.163Z,8.9
2018-04-13T03:28:09.768Z,8.8
2018-04-13T03:29:11.381Z,8.9
2018-04-13T03:30:12.986Z,8.8
2018-04-13T03:31:14.599Z,8.8
2018-04-13T03:32:16.204Z,8.9
2018-04-13T03:33:17.818Z,8.8
2018-04-13T03:34:19.423Z,8.9
2018-04-13T03:35:21.036Z,8.7
2018-04-13T03:36:22.646Z,8.8
2018-04-13T03:37:24.259Z,8.7
2018-04-13T03:38:25.865Z,8.8
2018-04-13T03:39:27.479Z,8.8
2018-04-13T03:40:29.087Z,8.9
2018-04-13T03:41:30.698Z,8.9
2018-04-13T03:42:32.310Z,8.9
2018-04-13T03:43:33.918Z,9.0
2018-04-13T03:44:35.523Z,9.2
2018-04-13T03:45:37.138Z,9.1
2018-04-13T03:46:38.746Z,9.2
2018-04-13T03:47:40.358Z,9.1
2018-04-13T03:48:41.974Z,9.1
2018-04-13T03:49:43.581Z,9.1
2018-04-13T03:50:45.194Z,9.1
2018-04-13T03:51:46.799Z,9.2
2018-04-13T03:52:48.411Z,9.1
2018-04-13T03:53:50.016Z,9.1
2018-04-13T03:54:51.631Z,9.1
2018-04-13T03:55:53.237Z,9.1
2018-04-13T03:56:54.854Z,9.2
2018-04-13T03:57:56.462Z,9.1
2018-04-13T03:58:58.076Z,9.2
2018-04-13T03:59:59.689Z,9.1
2018-04-13T04:01:01.295Z,9.1
2018-04-13T04:02:02.905Z,9.1
2018-04-13T04:03:04.512Z,9.2
2018-04-13T04:04:06.121Z,9.3
2018-04-13T04:05:07.736Z,9.4
2018-04-13T04:06:09.345Z,9.1
2018-04-13T04:07:10.963Z,9.3
2018-04-13T04:08:12.567Z,9.2
2018-04-13T04:09:14.174Z,9.3
2018-04-13T04:10:15.791Z,9.4
2018-04-13T04:11:17.398Z,9.3
2018-04-13T04:12:19.014Z,9.4
2018-04-13T04:13:20.618Z,9.5
2018-04-13T04:14:22.229Z,9.4
2018-04-13T04:15:23.835Z,9.5
2018-04-13T04:16:25.474Z,9.4
2018-04-13T04:17:27.059Z,9.5
2018-04-13T04:18:28.674Z,9.5
2018-04-13T04:19:30.282Z,9.5
2018-04-13T04:20:31.889Z,9.6
2018-04-13T04:21:33.506Z,9.5
2018-04-13T04:22:35.111Z,9.4
2018-04-13T04:23:36.727Z,9.5
2018-04-13T04:24:38.339Z,9.5
2018-04-13T04:25:39.948Z,9.5
2018-04-13T04:26:41.557Z,9.4
2018-04-13T04:27:43.171Z,9.5
2018-04-13T04:28:44.783Z,9.7
2018-04-13T04:29:46.391Z,9.6
2018-04-13T04:30:48.008Z,9.7
2018-04-13T04:31:49.617Z,9.6
2018-04-13T04:32:51.234Z,9.5
2018-04-13T04:33:52.846Z,9.6
2018-04-13T04:34:54.457Z,9.6
2018-04-13T04:35:56.071Z,9.5
2018-04-13T04:36:57.683Z,9.5
2018-04-13T04:37:59.295Z,9.5
2018-04-13T04:39:00.914Z,9.4
2018-04-13T04:40:02.524Z,9.5
2018-04-13T04:41:04.141Z,9.5
2018-04-13T04:42:05.754Z,9.5
2018-04-13T04:43:07.372Z,9.3
2018-04-13T04:44:08.982Z,9.4
2018-04-13T04:45:10.602Z,9.3
2018-04-13T04:46:12.212Z,9.3
2018-04-13T04:47:13.825Z,9.3
2018-04-13T04:48:15.439Z,9.5
2018-04-13T04:49:17.051Z,9.5
2018-04-13T04:50:18.671Z,9.5
2018-04-13T04:51:20.280Z,9.3
2018-04-13T04:52:21.900Z,9.4
2018-04-13T04:53:23.513Z,9.5
2018-04-13T04:54:25.128Z,9.4
2018-04-13T04:55:26.742Z,9.6
2018-04-13T04:56:28.361Z,9.5
2018-04-13T04:57:29.969Z,9.5
2018-04-13T04:58:31.584Z,9.5
2018-04-13T04:59:33.194Z,9.5
2018-04-13T05:00:34.815Z,9.6
2018-04-13T05:01:36.425Z,9.6
2018-04-13T05:02:38.045Z,9.6
2018-04-13T05:03:39.660Z,9.6
2018-04-13T05:04:41.277Z,9.6
2018-04-13T05:05:42.886Z,9.7
2018-04-13T05:06:44.506Z,9.7
2018-04-13T05:07:46.120Z,9.7
2018-04-13T05:08:47.736Z,9.7
2018-04-13T05:09:49.350Z,9.7
2018-04-13T05:10:50.963Z,9.7
2018-04-13T05:11:52.603Z,9.7
2018-04-13T05:12:54.193Z,9.7
2018-04-13T05:13:55.809Z,9.7
2018-04-13T05:14:57.429Z,9.8
2018-04-13T05:15:59.051Z,9.8
2018-04-13T05:17:00.662Z,9.8
2018-04-13T05:18:02.278Z,9.8
2018-04-13T05:19:03.896Z,9.8
2018-04-13T05:20:05.506Z,10.0
2018-04-13T05:21:07.129Z,10.0
2018-04-13T05:22:08.739Z,9.9
2018-04-13T05:23:10.356Z,9.9
2018-04-13T05:24:11.976Z,10.0
2018-04-13T05:25:13.593Z,10.1
2018-04-13T05:26:15.212Z,10.1
2018-04-13T05:27:16.827Z,10.2
2018-04-13T05:28:18.446Z,10.2
2018-04-13T05:29:20.093Z,10.2
2018-04-13T05:30:21.705Z,10.2
2018-04-13T05:31:23.327Z,10.2
2018-04-13T05:32:24.943Z,10.3
2018-04-13T05:33:27.190Z,10.3
2018-04-13T05:34:28.799Z,10.3
2018-04-13T05:35:30.422Z,10.3
2018-04-13T05:36:32.043Z,10.3
2018-04-13T05:37:33.657Z,10.3
2018-04-13T05:38:35.275Z,10.4
2018-04-13T05:39:36.887Z,10.3
2018-04-13T05:40:38.502Z,10.3
2018-04-13T05:41:40.118Z,10.5
2018-04-13T05:42:41.736Z,10.5
2018-04-13T05:43:43.354Z,10.4
2018-04-13T05:44:44.967Z,10.5
2018-04-13T05:45:46.592Z,10.6
2018-04-13T05:46:48.204Z,10.6
2018-04-13T05:47:49.827Z,10.7
2018-04-13T05:48:51.444Z,10.7
2018-04-13T05:49:53.062Z,10.8
2018-04-13T05:50:54.684Z,10.7
2018-04-13T05:51:56.305Z,10.7
2018-04-13T05:52:57.919Z,10.8
2018-04-13T05:53:59.538Z,10.8
2018-04-13T05:55:01.153Z,10.8
2018-04-13T05:56:02.774Z,10.9
2018-04-13T05:57:04.394Z,10.9
2018-04-13T05:58:06.039Z,10.9
2018-04-13T05:59:07.659Z,11.0
2018-04-13T06:00:09.292Z,10.9
2018-04-13T06:01:10.890Z,10.9
2018-04-13T06:02:12.511Z,11.1
2018-04-13T06:03:14.123Z,11.0
2018-04-13T06:04:15.744Z,11.2
2018-04-13T06:05:17.360Z,11.3
2018-04-13T06:06:18.983Z,11.3
2018-04-13T06:07:20.597Z,11.4
2018-04-13T06:08:22.226Z,11.6
2018-04-13T06:09:23.837Z,11.6
2018-04-13T06:10:25.458Z,11.8
2018-04-13T06:11:27.074Z,11.8
2018-04-13T06:12:28.690Z,11.8
2018-04-13T06:13:30.374Z,11.8
2018-04-13T06:14:31.952Z,11.8
2018-04-13T06:15:33.567Z,11.9
2018-04-13T06:16:35.183Z,11.8
2018-04-13T06:17:36.801Z,11.8
2018-04-13T06:18:38.418Z,11.8
2018-04-13T06:19:40.035Z,12.0
2018-04-13T06:20:41.658Z,11.8
2018-04-13T06:21:43.281Z,11.8
2018-04-13T06:22:44.895Z,11.9
2018-04-13T06:23:46.518Z,12.0
2018-04-13T06:24:48.132Z,11.9
2018-04-13T06:25:49.751Z,12.2
2018-04-13T06:26:51.370Z,12.2
2018-04-13T06:27:52.994Z,12.3
2018-04-13T06:28:54.616Z,12.3
2018-04-13T06:29:56.232Z,12.4
2018-04-13T06:30:57.847Z,12.7
2018-04-13T06:31:59.469Z,13.0
2018-04-13T06:33:01.092Z,13.1
2018-04-13T06:34:02.716Z,13.4
2018-04-13T06:35:04.335Z,13.6
2018-04-13T06:36:05.954Z,13.7
2018-04-13T06:37:07.575Z,13.9
2018-04-13T06:38:09.198Z,14.2
2018-04-13T06:39:10.814Z,14.5
2018-04-13T06:40:12.431Z,14.7
2018-04-13T06:41:14.062Z,14.9
2018-04-13T06:42:15.680Z,15.3
2018-04-13T06:43:17.306Z,15.3
2018-04-13T06:44:18.924Z,15.3
2018-04-13T06:45:20.547Z,15.4
2018-04-13T06:46:22.170Z,15.8
2018-04-13T06:47:23.796Z,16.2
2018-04-13T06:48:25.420Z,16.3
2018-04-13T06:49:27.045Z,16.6
2018-04-13T06:50:28.668Z,16.9
2018-04-13T06:51:31.218Z,17.3
2018-04-13T06:52:32.840Z,17.9
2018-04-13T06:53:34.466Z,18.2
2018-04-13T06:54:36.090Z,18.6
2018-04-13T06:55:37.726Z,19.3
2018-04-13T06:56:39.376Z,19.9
2018-04-13T06:57:40.972Z,20.2
2018-04-13T06:58:42.589Z,19.9
2018-04-13T06:59:44.214Z,19.9
2018-04-13T07:00:45.837Z,19.6
2018-04-13T07:01:47.460Z,19.3
2018-04-13T07:02:49.092Z,19.2
2018-04-13T07:03:50.712Z,19.1
2018-04-13T07:04:52.343Z,18.8
2018-04-13T07:05:53.967Z,18.9
2018-04-13T07:06:55.595Z,18.6
2018-04-13T07:07:57.215Z,18.5
2018-04-13T07:08:58.846Z,18.7
2018-04-13T07:10:00.470Z,18.8
2018-04-13T07:11:02.095Z,19.1
2018-04-13T07:12:03.717Z,19.1
2018-04-13T07:13:05.350Z,19.0
2018-04-13T07:14:06.977Z,18.8
2018-04-13T07:15:08.595Z,18.6
2018-04-13T07:16:10.223Z,18.2
2018-04-13T07:17:11.843Z,18.2
2018-04-13T07:18:13.475Z,18.0
2018-04-13T07:19:15.149Z,18.1
2018-04-13T07:20:16.722Z,18.0
2018-04-13T07:21:18.347Z,17.9
2018-04-13T07:22:19.972Z,17.9
2018-04-13T07:23:21.593Z,17.9
2018-04-13T07:24:23.220Z,17.7
2018-04-13T07:25:24.852Z,17.5
2018-04-13T07:26:26.473Z,17.4
2018-04-13T07:27:28.096Z,17.3
2018-04-13T07:28:29.723Z,17.5
2018-04-13T07:29:31.347Z,17.4
2018-04-13T07:30:32.976Z,17.6
2018-04-13T07:31:34.600Z,17.7
2018-04-13T07:32:36.337Z,17.7
2018-04-13T07:33:37.860Z,17.9
2018-04-13T07:34:39.478Z,18.0
2018-04-13T07:35:41.109Z,18.1
2018-04-13T07:36:43.084Z,18.3
2018-04-13T07:37:44.357Z,18.4
2018-04-13T07:38:45.984Z,18.5
2018-04-13T07:39:47.607Z,18.5
2018-04-13T07:40:49.236Z,18.4
2018-04-13T07:41:50.865Z,18.4
2018-04-13T07:42:52.484Z,18.2
2018-04-13T07:43:54.109Z,18.0
2018-04-13T07:44:55.744Z,17.9
2018-04-13T07:45:57.355Z,17.9
2018-04-13T07:46:58.990Z,17.8
2018-04-13T07:48:00.618Z,17.6
2018-04-13T07:49:02.235Z,17.6
2018-04-13T07:50:04.104Z,17.4
2018-04-13T07:51:05.484Z,17.5
2018-04-13T07:52:07.110Z,17.1
2018-04-13T07:53:08.731Z,17.0
2018-04-13T07:54:10.360Z,17.0
2018-04-13T07:55:11.989Z,16.9
2018-04-13T07:56:13.608Z,17.0
2018-04-13T07:57:15.235Z,16.7
2018-04-13T07:58:16.857Z,16.8
2018-04-13T07:59:18.477Z,16.7
2018-04-13T08:00:20.249Z,16.6
2018-04-13T08:01:21.727Z,16.7
2018-04-13T08:02:23.482Z,16.7
2018-04-13T08:03:24.980Z,16.6
2018-04-13T08:04:26.595Z,16.7
2018-04-13T08:05:28.220Z,16.7
2018-04-13T08:06:29.840Z,16.6
2018-04-13T08:07:31.462Z,16.5
2018-04-13T08:08:33.088Z,16.6
2018-04-13T08:09:34.709Z,16.9
2018-04-13T08:10:36.330Z,16.7
2018-04-13T08:11:38.325Z,16.7
2018-04-13T08:12:39.574Z,16.7
2018-04-13T08:13:41.202Z,16.8
2018-04-13T08:14:42.825Z,16.9
2018-04-13T08:15:44.453Z,16.9
2018-04-13T08:16:46.089Z,17.0
2018-04-13T08:17:47.717Z,17.1
2018-04-13T08:18:49.332Z,17.0
2018-04-13T08:19:50.961Z,17.2
2018-04-13T08:20:52.592Z,17.2
2018-04-13T08:21:54.212Z,17.3
2018-04-13T08:22:55.843Z,17.4
2018-04-13T08:23:58.506Z,17.4
2018-04-13T08:25:00.131Z,17.7
2018-04-13T08:26:01.759Z,18.0
2018-04-13T08:27:03.388Z,18.2
2018-04-13T08:28:05.006Z,18.3
2018-04-13T08:29:06.630Z,18.4
2018-04-13T08:30:08.265Z,18.5
2018-04-13T08:31:09.889Z,18.6
2018-04-13T08:32:11.517Z,18.7
2018-04-13T08:33:13.136Z,18.7
2018-04-13T08:34:14.766Z,18.7
2018-04-13T08:35:16.402Z,18.7
2018-04-13T08:36:18.019Z,19.0
2018-04-13T08:37:19.648Z,19.5
2018-04-13T08:38:21.277Z,19.8
2018-04-13T08:39:22.904Z,20.4
2018-04-13T08:40:24.527Z,21.0
2018-04-13T08:41:26.162Z,21.6
2018-04-13T08:42:27.820Z,21.9
2018-04-13T08:43:29.451Z,22.2
2018-04-13T08:44:31.047Z,22.1
2018-04-13T08:45:32.679Z,22.0
2018-04-13T08:46:34.303Z,22.1
2018-04-13T08:47:35.930Z,22.1
2018-04-13T08:48:37.701Z,21.6
2018-04-13T08:49:39.185Z,21.5
2018-04-13T08:50:40.823Z,21.8
2018-04-13T08:51:42.448Z,22.2
2018-04-13T08:52:44.075Z,22.2
2018-04-13T08:53:45.706Z,22.5
2018-04-13T08:54:47.337Z,22.7
2018-04-13T08:55:48.968Z,22.7
2018-04-13T08:56:50.629Z,22.3
2018-04-13T08:57:52.225Z,22.0
2018-04-13T08:58:53.853Z,22.0
2018-04-13T08:59:55.489Z,22.1
2018-04-13T09:00:57.127Z,21.6
2018-04-13T09:01:58.744Z,21.6
2018-04-13T09:03:00.377Z,21.3
2018-04-13T09:04:02.010Z,20.9
2018-04-13T09:05:03.633Z,20.9
2018-04-13T09:06:05.268Z,20.5
2018-04-13T09:07:06.892Z,20.5
2018-04-13T09:08:08.521Z,20.2
2018-04-13T09:09:10.151Z,20.4
2018-04-13T09:10:11.782Z,20.3
2018-04-13T09:11:13.419Z,20.5
2018-04-13T09:12:15.049Z,20.5
2018-04-13T09:13:16.678Z,20.6
2018-04-13T09:14:18.315Z,20.6
2018-04-13T09:15:19.935Z,20.4
2018-04-13T09:16:21.569Z,20.3
2018-04-13T09:17:23.192Z,20.3
2018-04-13T09:18:24.821Z,20.4
2018-04-13T09:19:26.479Z,20.3
2018-04-13T09:20:28.079Z,20.3
2018-04-13T09:21:29.705Z,20.4
2018-04-13T09:22:31.335Z,20.4
2018-04-13T09:23:32.956Z,20.3
2018-04-13T09:24:34.585Z,20.2
2018-04-13T09:25:37.087Z,19.9
2018-04-13T09:26:38.721Z,19.6
2018-04-13T09:27:40.345Z,19.5
2018-04-13T09:28:41.976Z,19.5
2018-04-13T09:29:43.598Z,19.2
2018-04-13T09:30:45.222Z,19.2
2018-04-13T09:31:46.845Z,19.0
2018-04-13T09:32:48.472Z,19.1
2018-04-13T09:33:50.092Z,19.0
2018-04-13T09:34:51.722Z,19.1
2018-04-13T09:35:53.365Z,19.1
2018-04-13T09:36:54.967Z,19.0
2018-04-13T09:37:56.587Z,19.0
2018-04-13T09:38:58.214Z,19.0
2018-04-13T09:39:59.837Z,18.9
2018-04-13T09:41:01.463Z,18.8
2018-04-13T09:42:03.086Z,19.0
2018-04-13T09:43:04.715Z,18.9
2018-04-13T09:44:06.333Z,19.0
2018-04-13T09:45:07.952Z,18.8
2018-04-13T09:46:09.589Z,18.7
2018-04-13T09:47:11.201Z,18.6
2018-04-13T09:48:12.827Z,18.5
2018-04-13T09:49:14.450Z,18.6
2018-04-13T09:50:16.074Z,18.5
2018-04-13T09:51:17.697Z,18.2
2018-04-13T09:52:19.319Z,18.1
2018-04-13T09:53:20.937Z,18.3
2018-04-13T09:54:22.563Z,18.1
2018-04-13T09:55:24.183Z,18.2
2018-04-13T09:56:25.814Z,18.2
2018-04-13T09:57:27.436Z,18.0
2018-04-13T09:58:29.052Z,18.1
2018-04-13T09:59:30.686Z,18.0
2018-04-13T10:00:32.302Z,18.0
2018-04-13T10:01:33.938Z,18.0
2018-04-13T10:02:35.548Z,17.9
2018-04-13T10:03:37.169Z,17.8
2018-04-13T10:04:38.798Z,18.1
2018-04-13T10:05:40.422Z,18.0
2018-04-13T10:06:42.041Z,18.1
2018-04-13T10:07:43.664Z,17.9
2018-04-13T10:08:45.285Z,18.0
2018-04-13T10:09:46.913Z,17.9
2018-04-13T10:10:48.532Z,17.9
2018-04-13T10:11:50.159Z,18.0
2018-04-13T10:12:51.783Z,17.8
2018-04-13T10:13:53.400Z,18.0
2018-04-13T10:14:55.026Z,17.9
2018-04-13T10:15:56.648Z,17.8
2018-04-13T10:16:58.264Z,17.7
2018-04-13T10:17:59.891Z,17.8
2018-04-13T10:19:01.511Z,17.8
2018-04-13T10:20:03.142Z,17.9
2018-04-13T10:21:04.754Z,17.8
2018-04-13T10:22:06.381Z,17.8
2018-04-13T10:23:08.000Z,17.7
2018-04-13T10:24:09.621Z,17.8
2018-04-13T10:25:11.249Z,17.7
2018-04-13T10:26:12.872Z,17.9
2018-04-13T10:27:14.492Z,17.9
2018-04-13T10:28:16.110Z,17.9
2018-04-13T10:29:17.737Z,17.9
2018-04-13T10:30:19.355Z,18.0
2018-04-13T10:31:20.982Z,18.1
2018-04-13T10:32:22.610Z,17.9
2018-04-13T10:33:24.232Z,17.9
2018-04-13T10:34:25.855Z,18.0
2018-04-13T10:35:27.472Z,18.0
2018-04-13T10:36:29.098Z,18.0
2018-04-13T10:37:30.718Z,17.9
2018-04-13T10:38:32.377Z,18.0
2018-04-13T10:39:33.964Z,17.8
2018-04-13T10:40:35.592Z,17.8
2018-04-13T10:41:37.209Z,17.7
2018-04-13T10:42:38.835Z,17.8
2018-04-13T10:43:40.454Z,17.7
2018-04-13T10:44:42.081Z,17.8
2018-04-13T10:45:43.699Z,17.8
2018-04-13T10:46:45.328Z,17.8
2018-04-13T10:47:46.945Z,17.9
2018-04-13T10:48:48.569Z,17.9
2018-04-13T10:49:50.187Z,18.0
2018-04-13T10:50:51.806Z,18.0
2018-04-13T10:51:53.436Z,18.1
2018-04-13T10:52:55.054Z,17.9
2018-04-13T10:53:56.679Z,17.9
2018-04-13T10:54:58.302Z,18.0
2018-04-13T10:55:59.920Z,17.9
2018-04-13T10:57:01.573Z,17.9
2018-04-13T10:58:03.167Z,18.1
2018-04-13T10:59:04.792Z,18.1
2018-04-13T11:00:06.413Z,18.0
2018-04-13T11:01:08.040Z,18.1
2018-04-13T11:02:09.667Z,18.1
2018-04-13T11:03:11.283Z,18.1
2018-04-13T11:04:12.915Z,18.1
2018-04-13T11:05:14.536Z,18.1
2018-04-13T11:06:16.160Z,18.1
2018-04-13T11:07:17.789Z,18.2
2018-04-13T11:08:19.412Z,18.4
2018-04-13T11:09:21.035Z,18.4
2018-04-13T11:10:22.667Z,18.4
2018-04-13T11:11:24.288Z,18.6
2018-04-13T11:12:25.912Z,18.5
2018-04-13T11:13:27.542Z,18.7
2018-04-13T11:14:29.160Z,18.7
2018-04-13T11:15:30.788Z,18.7
2018-04-13T11:16:32.414Z,18.6
2018-04-13T11:17:34.038Z,18.6
2018-04-13T11:18:35.661Z,18.9
2018-04-13T11:19:37.291Z,18.7
2018-04-13T11:20:38.912Z,18.7
2018-04-13T11:21:40.539Z,18.7
2018-04-13T11:22:42.179Z,18.8
2018-04-13T11:23:43.804Z,18.6
2018-04-13T11:24:45.427Z,18.6
2018-04-13T11:25:47.049Z,18.7
2018-04-13T11:26:48.671Z,18.9
2018-04-13T11:27:50.298Z,18.6
2018-04-13T11:28:51.923Z,18.8
2018-04-13T11:29:53.551Z,18.8
2018-04-13T11:30:55.175Z,18.8
2018-04-13T11:31:56.796Z,18.5
2018-04-13T11:32:58.425Z,18.6
2018-04-13T11:34:00.052Z,18.7
2018-04-13T11:35:01.677Z,18.7
2018-04-13T11:36:03.306Z,18.8
2018-04-13T11:37:04.929Z,18.8
2018-04-13T11:38:06.556Z,18.8
2018-04-13T11:39:08.177Z,18.7
2018-04-13T11:40:09.798Z,18.6
2018-04-13T11:41:11.418Z,18.6
2018-04-13T11:42:13.045Z,18.4
2018-04-13T11:43:14.669Z,18.4
2018-04-13T11:44:16.299Z,18.4
2018-04-13T11:45:17.917Z,18.6
2018-04-13T11:46:19.538Z,18.7
2018-04-13T11:47:21.169Z,18.5
2018-04-13T11:48:22.793Z,18.7
2018-04-13T11:49:24.409Z,18.6
2018-04-13T11:50:26.034Z,18.7
2018-04-13T11:51:27.656Z,18.7
2018-04-13T11:52:29.277Z,18.6
2018-04-13T11:53:30.902Z,18.4
2018-04-13T11:54:32.521Z,18.4
2018-04-13T11:55:34.142Z,18.2
2018-04-13T11:56:35.773Z,18.1
2018-04-13T11:57:37.388Z,18.1
2018-04-13T11:58:39.015Z,18.1
2018-04-13T11:59:40.638Z,18.1
2018-04-13T12:00:42.256Z,18.2
2018-04-13T12:01:43.878Z,18.1
2018-04-13T12:02:45.503Z,18.1
2018-04-13T12:03:47.125Z,18.1
2018-04-13T12:04:48.742Z,18.1
2018-04-13T12:05:50.401Z,18.1
2018-04-13T12:06:51.995Z,18.1
2018-04-13T12:07:53.618Z,18.2
2018-04-13T12:08:55.242Z,18.3
2018-04-13T12:09:56.868Z,18.4
2018-04-13T12:10:58.494Z,18.3
2018-04-13T12:12:00.123Z,18.3
2018-04-13T12:13:01.744Z,18.2
2018-04-13T12:14:03.373Z,18.6
2018-04-13T12:15:04.998Z,18.5
2018-04-13T12:16:06.620Z,18.9
2018-04-13T12:17:08.280Z,18.9
2018-04-13T12:18:09.873Z,19.0
2018-04-13T12:19:11.497Z,19.2
2018-04-13T12:20:13.126Z,19.2
2018-04-13T12:21:14.757Z,19.2
2018-04-13T12:22:16.393Z,19.4
2018-04-13T12:23:18.009Z,19.3
2018-04-13T12:24:19.630Z,19.2
2018-04-13T12:25:21.257Z,19.3
2018-04-13T12:26:22.882Z,19.6
2018-04-13T12:27:24.516Z,19.6
2018-04-13T12:28:26.144Z,19.8
2018-04-13T12:29:27.766Z,19.7
2018-04-13T12:30:29.390Z,19.7
2018-04-13T12:31:31.015Z,19.5
2018-04-13T12:32:32.641Z,19.6
2018-04-13T12:33:34.266Z,19.8
2018-04-13T12:34:35.891Z,19.8
2018-04-13T12:35:37.515Z,19.9
2018-04-13T12:36:39.141Z,19.7
2018-04-13T12:37:40.769Z,19.7
2018-04-13T12:38:42.387Z,19.6
2018-04-13T12:39:44.021Z,19.4
2018-04-13T12:40:45.643Z,19.3
2018-04-13T12:41:47.270Z,19.1
2018-04-13T12:42:48.898Z,19.2
2018-04-13T12:43:50.522Z,19.1
2018-04-13T12:44:52.147Z,19.0
2018-04-13T12:45:53.778Z,19.1
2018-04-13T12:46:55.397Z,19.1
2018-04-13T12:47:57.029Z,19.1
2018-04-13T12:48:58.672Z,19.1
2018-04-13T12:50:00.287Z,19.2
2018-04-13T12:51:01.908Z,19.4
2018-04-13T12:52:03.532Z,19.4
2018-04-13T12:53:05.226Z,19.2
2018-04-13T12:54:06.807Z,19.4
2018-04-13T12:55:08.650Z,19.4
2018-04-13T12:56:10.092Z,19.4
2018-04-13T12:57:11.671Z,19.5
2018-04-13T12:58:13.292Z,19.6
2018-04-13T12:59:14.919Z,19.6
2018-04-13T13:00:16.595Z,19.7
2018-04-13T13:01:18.169Z,19.6
2018-04-13T13:02:19.799Z,19.5
2018-04-13T13:03:21.421Z,19.5
2018-04-13T13:04:23.051Z,19.2
2018-04-13T13:05:24.675Z,19.2
2018-04-13T13:06:26.296Z,19.4
2018-04-13T13:07:27.917Z,19.2
2018-04-13T13:08:29.547Z,19.2
2018-04-13T13:09:31.167Z,19.1
2018-04-13T13:10:32.794Z,19.1
2018-04-13T13:11:34.417Z,18.7
2018-04-13T13:12:36.041Z,18.6
2018-04-13T13:13:37.662Z,18.7
2018-04-13T13:14:39.287Z,18.6
2018-04-13T13:15:40.957Z,18.6
2018-04-13T13:16:42.533Z,18.7
2018-04-13T13:17:44.165Z,18.6
2018-04-13T13:18:45.784Z,18.7
2018-04-13T13:19:47.408Z,18.5
2018-04-13T13:20:49.029Z,18.4
2018-04-13T13:21:50.655Z,18.5
2018-04-13T13:22:52.281Z,18.4
2018-04-13T13:23:53.902Z,18.4
2018-04-13T13:24:55.520Z,18.4
2018-04-13T13:25:57.149Z,18.3
2018-04-13T13:26:58.766Z,18.0
2018-04-13T13:28:00.390Z,18.0
2018-04-13T13:29:02.010Z,18.0
2018-04-13T13:30:03.638Z,18.0
2018-04-13T13:31:05.255Z,18.2
2018-04-13T13:32:06.884Z,18.3
2018-04-13T13:33:08.508Z,18.3
2018-04-13T13:34:10.126Z,18.3
2018-04-13T13:35:11.753Z,18.4
2018-04-13T13:36:13.383Z,18.5
2018-04-13T13:37:15.008Z,18.6
2018-04-13T13:38:16.635Z,18.6
2018-04-13T13:39:18.256Z,18.7
2018-04-13T13:40:19.889Z,18.7
2018-04-13T13:41:21.508Z,18.4
2018-04-13T13:42:23.135Z,18.4
2018-04-13T13:43:24.757Z,18.3
2018-04-13T13:44:26.380Z,18.4
2018-04-13T13:45:28.007Z,18.3
2018-04-13T13:46:29.627Z,18.4